sensor_id;sensor_type;location;lat;lon;timestamp;P1;durP1;ratioP1;P2;durP2;ratioP2
17949;SDS011;9100;48.700;9.316;2023-02-28T00:00:33;2;;;1.9;;
17949;SDS011;9100;48.700;9.316;2023-02-28T00:01:31;1.3;;;1.3;;
17949;SDS011;9100;48.700;9.316;2023-02-28T00:01:33;1.3;;;1.3;;
17949;SDS011;9100;48.700;9.316;2023-02-28T00:02:33;1.3;;;1.3;;
17949;SDS011;9100;48.700;9.316;2023-02-28T00:03:33;1.3;;;1.3;;
17949;SDS011;9100;48.700;9.316;2023-02-28T00:04:33;1.3;;;1.3;;
17949;SDS011;9100;48.700;9.316;2023-02-28T00:05:33;1.3;;;1.3;;
17949;SDS011;9100;48.700;9.316;2023-02-28T00:06:31;1.9;;;1.7;;
17949;SDS011;9100;48.700;9.316;2023-02-28T00:06:33;1.9;;;1.7;;
17949;SDS011;9100;48.700;9.316;2023-02-28T00:07:34;1.9;;;1.7;;
17949;SDS011;9100;48.700;9.316;2023-02-28T00:08:33;1.9;;;1.7;;
17949;SDS011;9100;48.700;9.316;2023-02-28T00:09:33;1.9;;;1.7;;
17949;SDS011;9100;48.700;9.316;2023-02-28T00:10:33;1.9;;;1.7;;
17949;SDS011;9100;48.700;9.316;2023-02-28T00:11:31;2;;;1.9;;
17949;SDS011;9100;48.700;9.316;2023-02-28T00:11:33;2;;;1.9;;
17949;SDS011;9100;48.700;9.316;2023-02-28T00:12:34;2;;;1.9;;
17949;SDS011;9100;48.700;9.316;2023-02-28T00:13:33;2;;;1.9;;
17949;SDS011;9100;48.700;9.316;2023-02-28T00:14:33;2;;;1.9;;
17949;SDS011;9100;48.700;9.316;2023-02-28T00:15:33;2;;;1.9;;
17949;SDS011;9100;48.700;9.316;2023-02-28T00:16:31;1.7;;;1.6;;
17949;SDS011;9100;48.700;9.316;2023-02-28T00:16:33;1.7;;;1.6;;
17949;SDS011;9100;48.700;9.316;2023-02-28T00:17:33;1.7;;;1.6;;
17949;SDS011;9100;48.700;9.316;2023-02-28T00:18:34;1.7;;;1.6;;
17949;SDS011;9100;48.700;9.316;2023-02-28T00:19:33;1.7;;;1.6;;
17949;SDS011;9100;48.700;9.316;2023-02-28T00:20:33;1.7;;;1.6;;
17949;SDS011;9100;48.700;9.316;2023-02-28T00:21:31;1.3;;;1.3;;
17949;SDS011;9100;48.700;9.316;2023-02-28T00:21:33;1.3;;;1.3;;
17949;SDS011;9100;48.700;9.316;2023-02-28T00:22:34;1.3;;;1.3;;
17949;SDS011;9100;48.700;9.316;2023-02-28T00:23:33;1.3;;;1.3;;
17949;SDS011;9100;48.700;9.316;2023-02-28T00:24:33;1.3;;;1.3;;
17949;SDS011;9100;48.700;9.316;2023-02-28T00:25:33;1.3;;;1.3;;
17949;SDS011;9100;48.700;9.316;2023-02-28T00:26:31;1.7;;;1.4;;
17949;SDS011;9100;48.700;9.316;2023-02-28T00:26:33;1.7;;;1.4;;
17949;SDS011;9100;48.700;9.316;2023-02-28T00:27:33;1.7;;;1.4;;
17949;SDS011;9100;48.700;9.316;2023-02-28T00:28:33;1.7;;;1.4;;
17949;SDS011;9100;48.700;9.316;2023-02-28T00:29:33;1.7;;;1.4;;
17949;SDS011;9100;48.700;9.316;2023-02-28T00:30:33;1.7;;;1.4;;
17949;SDS011;9100;48.700;9.316;2023-02-28T00:31:31;2.1;;;1.7;;
17949;SDS011;9100;48.700;9.316;2023-02-28T00:31:33;2.1;;;1.7;;
17949;SDS011;9100;48.700;9.316;2023-02-28T00:32:33;2.1;;;1.7;;
17949;SDS011;9100;48.700;9.316;2023-02-28T00:33:33;2.1;;;1.7;;
17949;SDS011;9100;48.700;9.316;2023-02-28T00:34:33;2.1;;;1.7;;
17949;SDS011;9100;48.700;9.316;2023-02-28T00:35:33;2.1;;;1.7;;
17949;SDS011;9100;48.700;9.316;2023-02-28T00:36:31;1.3;;;1.3;;
17949;SDS011;9100;48.700;9.316;2023-02-28T00:36:33;1.3;;;1.3;;
17949;SDS011;9100;48.700;9.316;2023-02-28T00:37:34;1.3;;;1.3;;
17949;SDS011;9100;48.700;9.316;2023-02-28T00:38:33;1.3;;;1.3;;
17949;SDS011;9100;48.700;9.316;2023-02-28T00:39:33;1.3;;;1.3;;
17949;SDS011;9100;48.700;9.316;2023-02-28T00:40:33;1.3;;;1.3;;
17949;SDS011;9100;48.700;9.316;2023-02-28T00:41:31;2.1;;;2;;
17949;SDS011;9100;48.700;9.316;2023-02-28T00:41:33;2.1;;;2;;
17949;SDS011;9100;48.700;9.316;2023-02-28T00:42:33;2.1;;;2;;
17949;SDS011;9100;48.700;9.316;2023-02-28T00:43:33;2.1;;;2;;
17949;SDS011;9100;48.700;9.316;2023-02-28T00:44:33;2.1;;;2;;
17949;SDS011;9100;48.700;9.316;2023-02-28T00:45:34;2.1;;;2;;
17949;SDS011;9100;48.700;9.316;2023-02-28T00:46:31;3.1;;;1.7;;
17949;SDS011;9100;48.700;9.316;2023-02-28T00:46:33;3.1;;;1.7;;
17949;SDS011;9100;48.700;9.316;2023-02-28T00:47:33;3.1;;;1.7;;
17949;SDS011;9100;48.700;9.316;2023-02-28T00:48:33;3.1;;;1.7;;
17949;SDS011;9100;48.700;9.316;2023-02-28T00:49:33;3.1;;;1.7;;
17949;SDS011;9100;48.700;9.316;2023-02-28T00:50:33;3.1;;;1.7;;
17949;SDS011;9100;48.700;9.316;2023-02-28T00:51:31;3.4;;;1.8;;
17949;SDS011;9100;48.700;9.316;2023-02-28T00:51:33;3.4;;;1.8;;
17949;SDS011;9100;48.700;9.316;2023-02-28T00:52:33;3.4;;;1.8;;
17949;SDS011;9100;48.700;9.316;2023-02-28T00:53:34;3.4;;;1.8;;
17949;SDS011;9100;48.700;9.316;2023-02-28T00:54:33;3.4;;;1.8;;
17949;SDS011;9100;48.700;9.316;2023-02-28T00:55:33;3.4;;;1.8;;
17949;SDS011;9100;48.700;9.316;2023-02-28T00:56:31;1.4;;;1.4;;
17949;SDS011;9100;48.700;9.316;2023-02-28T00:56:33;1.4;;;1.4;;
17949;SDS011;9100;48.700;9.316;2023-02-28T00:57:34;1.4;;;1.4;;
17949;SDS011;9100;48.700;9.316;2023-02-28T00:58:33;1.4;;;1.4;;
17949;SDS011;9100;48.700;9.316;2023-02-28T00:59:33;1.4;;;1.4;;
17949;SDS011;9100;48.700;9.316;2023-02-28T01:00:33;1.4;;;1.4;;
17949;SDS011;9100;48.700;9.316;2023-02-28T01:01:31;1.7;;;1.6;;
17949;SDS011;9100;48.700;9.316;2023-02-28T01:01:33;1.7;;;1.6;;
17949;SDS011;9100;48.700;9.316;2023-02-28T01:02:34;1.7;;;1.6;;
17949;SDS011;9100;48.700;9.316;2023-02-28T01:03:34;1.7;;;1.6;;
17949;SDS011;9100;48.700;9.316;2023-02-28T01:04:33;1.7;;;1.6;;
17949;SDS011;9100;48.700;9.316;2023-02-28T01:05:33;1.7;;;1.6;;
17949;SDS011;9100;48.700;9.316;2023-02-28T01:06:31;3.8;;;1.6;;
17949;SDS011;9100;48.700;9.316;2023-02-28T01:06:33;3.8;;;1.6;;
17949;SDS011;9100;48.700;9.316;2023-02-28T01:07:33;3.8;;;1.6;;
17949;SDS011;9100;48.700;9.316;2023-02-28T01:08:33;3.8;;;1.6;;
17949;SDS011;9100;48.700;9.316;2023-02-28T01:09:33;3.8;;;1.6;;
17949;SDS011;9100;48.700;9.316;2023-02-28T01:10:33;3.8;;;1.6;;
17949;SDS011;9100;48.700;9.316;2023-02-28T01:11:31;1.4;;;1.4;;
17949;SDS011;9100;48.700;9.316;2023-02-28T01:11:33;1.4;;;1.4;;
17949;SDS011;9100;48.700;9.316;2023-02-28T01:12:33;1.4;;;1.4;;
17949;SDS011;9100;48.700;9.316;2023-02-28T01:13:33;1.4;;;1.4;;
17949;SDS011;9100;48.700;9.316;2023-02-28T01:14:34;1.4;;;1.4;;
17949;SDS011;9100;48.700;9.316;2023-02-28T01:15:33;1.4;;;1.4;;
17949;SDS011;9100;48.700;9.316;2023-02-28T01:16:31;2;;;1.7;;
17949;SDS011;9100;48.700;9.316;2023-02-28T01:16:33;2;;;1.7;;
17949;SDS011;9100;48.700;9.316;2023-02-28T01:17:33;2;;;1.7;;
17949;SDS011;9100;48.700;9.316;2023-02-28T01:18:33;2;;;1.7;;
17949;SDS011;9100;48.700;9.316;2023-02-28T01:19:33;2;;;1.7;;
17949;SDS011;9100;48.700;9.316;2023-02-28T01:20:33;2;;;1.7;;
17949;SDS011;9100;48.700;9.316;2023-02-28T01:21:31;1.5;;;1.5;;
17949;SDS011;9100;48.700;9.316;2023-02-28T01:21:33;1.5;;;1.5;;
17949;SDS011;9100;48.700;9.316;2023-02-28T01:22:34;1.5;;;1.5;;
17949;SDS011;9100;48.700;9.316;2023-02-28T01:23:33;1.5;;;1.5;;
17949;SDS011;9100;48.700;9.316;2023-02-28T01:24:34;1.5;;;1.5;;
17949;SDS011;9100;48.700;9.316;2023-02-28T01:25:34;1.5;;;1.5;;
17949;SDS011;9100;48.700;9.316;2023-02-28T01:26:31;2;;;1.8;;
17949;SDS011;9100;48.700;9.316;2023-02-28T01:26:33;2;;;1.8;;
17949;SDS011;9100;48.700;9.316;2023-02-28T01:27:33;2;;;1.8;;
17949;SDS011;9100;48.700;9.316;2023-02-28T01:28:34;2;;;1.8;;
17949;SDS011;9100;48.700;9.316;2023-02-28T01:29:33;2;;;1.8;;
17949;SDS011;9100;48.700;9.316;2023-02-28T01:30:33;2;;;1.8;;
17949;SDS011;9100;48.700;9.316;2023-02-28T01:31:31;1.9;;;1.8;;
17949;SDS011;9100;48.700;9.316;2023-02-28T01:31:33;1.9;;;1.8;;
17949;SDS011;9100;48.700;9.316;2023-02-28T01:32:33;1.9;;;1.8;;
17949;SDS011;9100;48.700;9.316;2023-02-28T01:33:33;1.9;;;1.8;;
17949;SDS011;9100;48.700;9.316;2023-02-28T01:34:33;1.9;;;1.8;;
17949;SDS011;9100;48.700;9.316;2023-02-28T01:35:33;1.9;;;1.8;;
17949;SDS011;9100;48.700;9.316;2023-02-28T01:36:31;4;;;1.8;;
17949;SDS011;9100;48.700;9.316;2023-02-28T01:36:33;4;;;1.8;;
17949;SDS011;9100;48.700;9.316;2023-02-28T01:37:33;4;;;1.8;;
17949;SDS011;9100;48.700;9.316;2023-02-28T01:38:33;4;;;1.8;;
17949;SDS011;9100;48.700;9.316;2023-02-28T01:39:33;4;;;1.8;;
17949;SDS011;9100;48.700;9.316;2023-02-28T01:40:33;4;;;1.8;;
17949;SDS011;9100;48.700;9.316;2023-02-28T01:41:32;2;;;1.9;;
17949;SDS011;9100;48.700;9.316;2023-02-28T01:41:33;2;;;1.9;;
17949;SDS011;9100;48.700;9.316;2023-02-28T01:42:33;2;;;1.9;;
17949;SDS011;9100;48.700;9.316;2023-02-28T01:43:55;2;;;1.9;;
17949;SDS011;9100;48.700;9.316;2023-02-28T01:45:08;2;;;1.9;;
17949;SDS011;9100;48.700;9.316;2023-02-28T01:45:33;2;;;1.9;;
17949;SDS011;9100;48.700;9.316;2023-02-28T01:46:31;1.2;;;1.2;;
17949;SDS011;9100;48.700;9.316;2023-02-28T01:46:34;1.2;;;1.2;;
17949;SDS011;9100;48.700;9.316;2023-02-28T01:47:35;1.2;;;1.2;;
17949;SDS011;9100;48.700;9.316;2023-02-28T01:48:34;1.2;;;1.2;;
17949;SDS011;9100;48.700;9.316;2023-02-28T01:49:33;1.2;;;1.2;;
17949;SDS011;9100;48.700;9.316;2023-02-28T01:50:34;1.2;;;1.2;;
17949;SDS011;9100;48.700;9.316;2023-02-28T01:51:32;2.4;;;2.1;;
17949;SDS011;9100;48.700;9.316;2023-02-28T01:51:35;2.4;;;2.1;;
17949;SDS011;9100;48.700;9.316;2023-02-28T01:52:33;2.4;;;2.1;;
17949;SDS011;9100;48.700;9.316;2023-02-28T01:53:34;2.4;;;2.1;;
17949;SDS011;9100;48.700;9.316;2023-02-28T01:54:33;2.4;;;2.1;;
17949;SDS011;9100;48.700;9.316;2023-02-28T01:55:33;2.4;;;2.1;;
17949;SDS011;9100;48.700;9.316;2023-02-28T01:56:32;2.5;;;2.2;;
17949;SDS011;9100;48.700;9.316;2023-02-28T01:56:34;2.5;;;2.2;;
17949;SDS011;9100;48.700;9.316;2023-02-28T01:57:34;2.5;;;2.2;;
17949;SDS011;9100;48.700;9.316;2023-02-28T01:58:33;2.5;;;2.2;;
17949;SDS011;9100;48.700;9.316;2023-02-28T01:59:34;2.5;;;2.2;;
17949;SDS011;9100;48.700;9.316;2023-02-28T02:00:33;2.5;;;2.2;;
17949;SDS011;9100;48.700;9.316;2023-02-28T02:01:31;2.1;;;2;;
17949;SDS011;9100;48.700;9.316;2023-02-28T02:01:33;2.1;;;2;;
17949;SDS011;9100;48.700;9.316;2023-02-28T02:02:34;2.1;;;2;;
17949;SDS011;9100;48.700;9.316;2023-02-28T02:03:33;2.1;;;2;;
17949;SDS011;9100;48.700;9.316;2023-02-28T02:04:34;2.1;;;2;;
17949;SDS011;9100;48.700;9.316;2023-02-28T02:05:33;2.1;;;2;;
17949;SDS011;9100;48.700;9.316;2023-02-28T02:06:34;1.6;;;1.5;;
17949;SDS011;9100;48.700;9.316;2023-02-28T02:06:34;1.6;;;1.5;;
17949;SDS011;9100;48.700;9.316;2023-02-28T02:07:34;1.6;;;1.5;;
17949;SDS011;9100;48.700;9.316;2023-02-28T02:08:33;1.6;;;1.5;;
17949;SDS011;9100;48.700;9.316;2023-02-28T02:09:33;1.6;;;1.5;;
17949;SDS011;9100;48.700;9.316;2023-02-28T02:10:34;1.6;;;1.5;;
17949;SDS011;9100;48.700;9.316;2023-02-28T02:11:32;1.9;;;1.8;;
17949;SDS011;9100;48.700;9.316;2023-02-28T02:11:33;1.9;;;1.8;;
17949;SDS011;9100;48.700;9.316;2023-02-28T02:12:39;1.9;;;1.8;;
17949;SDS011;9100;48.700;9.316;2023-02-28T02:13:38;1.9;;;1.8;;
17949;SDS011;9100;48.700;9.316;2023-02-28T02:14:37;1.9;;;1.8;;
17949;SDS011;9100;48.700;9.316;2023-02-28T02:15:34;1.9;;;1.8;;
17949;SDS011;9100;48.700;9.316;2023-02-28T02:16:34;2;;;1.9;;
17949;SDS011;9100;48.700;9.316;2023-02-28T02:16:35;2;;;1.9;;
17949;SDS011;9100;48.700;9.316;2023-02-28T02:17:34;2;;;1.9;;
17949;SDS011;9100;48.700;9.316;2023-02-28T02:18:36;2;;;1.9;;
17949;SDS011;9100;48.700;9.316;2023-02-28T02:19:53;2;;;1.9;;
17949;SDS011;9100;48.700;9.316;2023-02-28T02:21:39;2.1;;;1.9;;
17949;SDS011;9100;48.700;9.316;2023-02-28T02:22:09;2.1;;;1.9;;
17949;SDS011;9100;48.700;9.316;2023-02-28T02:22:37;2.1;;;1.9;;
17949;SDS011;9100;48.700;9.316;2023-02-28T02:23:41;2.1;;;1.9;;
17949;SDS011;9100;48.700;9.316;2023-02-28T02:24:42;2.1;;;1.9;;
17949;SDS011;9100;48.700;9.316;2023-02-28T02:25:33;2.1;;;1.9;;
17949;SDS011;9100;48.700;9.316;2023-02-28T02:26:37;2.2;;;2.1;;
17949;SDS011;9100;48.700;9.316;2023-02-28T02:26:39;2.2;;;2.1;;
17949;SDS011;9100;48.700;9.316;2023-02-28T02:27:37;2.2;;;2.1;;
17949;SDS011;9100;48.700;9.316;2023-02-28T02:28:46;2.2;;;2.1;;
17949;SDS011;9100;48.700;9.316;2023-02-28T02:29:37;2.2;;;2.1;;
17949;SDS011;9100;48.700;9.316;2023-02-28T02:30:40;2.2;;;2.1;;
17949;SDS011;9100;48.700;9.316;2023-02-28T02:31:36;1.9;;;1.8;;
17949;SDS011;9100;48.700;9.316;2023-02-28T02:31:38;1.9;;;1.8;;
17949;SDS011;9100;48.700;9.316;2023-02-28T02:32:40;1.9;;;1.8;;
17949;SDS011;9100;48.700;9.316;2023-02-28T02:33:45;1.9;;;1.8;;
17949;SDS011;9100;48.700;9.316;2023-02-28T02:34:36;1.9;;;1.8;;
17949;SDS011;9100;48.700;9.316;2023-02-28T02:35:34;1.9;;;1.8;;
17949;SDS011;9100;48.700;9.316;2023-02-28T02:36:32;2.2;;;1.9;;
17949;SDS011;9100;48.700;9.316;2023-02-28T02:36:35;2.2;;;1.9;;
17949;SDS011;9100;48.700;9.316;2023-02-28T02:37:35;2.2;;;1.9;;
17949;SDS011;9100;48.700;9.316;2023-02-28T02:38:34;2.2;;;1.9;;
17949;SDS011;9100;48.700;9.316;2023-02-28T02:39:35;2.2;;;1.9;;
17949;SDS011;9100;48.700;9.316;2023-02-28T02:40:35;2.2;;;1.9;;
17949;SDS011;9100;48.700;9.316;2023-02-28T02:41:33;2.8;;;2.3;;
17949;SDS011;9100;48.700;9.316;2023-02-28T02:41:34;2.8;;;2.3;;
17949;SDS011;9100;48.700;9.316;2023-02-28T02:42:35;2.8;;;2.3;;
17949;SDS011;9100;48.700;9.316;2023-02-28T02:43:34;2.8;;;2.3;;
17949;SDS011;9100;48.700;9.316;2023-02-28T02:44:34;2.8;;;2.3;;
17949;SDS011;9100;48.700;9.316;2023-02-28T02:45:34;2.8;;;2.3;;
17949;SDS011;9100;48.700;9.316;2023-02-28T02:46:32;2.2;;;2.1;;
17949;SDS011;9100;48.700;9.316;2023-02-28T02:46:35;2.2;;;2.1;;
17949;SDS011;9100;48.700;9.316;2023-02-28T02:47:33;2.2;;;2.1;;
17949;SDS011;9100;48.700;9.316;2023-02-28T02:48:34;2.2;;;2.1;;
17949;SDS011;9100;48.700;9.316;2023-02-28T02:49:34;2.2;;;2.1;;
17949;SDS011;9100;48.700;9.316;2023-02-28T02:50:35;2.2;;;2.1;;
17949;SDS011;9100;48.700;9.316;2023-02-28T02:51:31;1.8;;;1.7;;
17949;SDS011;9100;48.700;9.316;2023-02-28T02:51:33;1.8;;;1.7;;
17949;SDS011;9100;48.700;9.316;2023-02-28T02:52:34;1.8;;;1.7;;
17949;SDS011;9100;48.700;9.316;2023-02-28T02:53:35;1.8;;;1.7;;
17949;SDS011;9100;48.700;9.316;2023-02-28T02:54:34;1.8;;;1.7;;
17949;SDS011;9100;48.700;9.316;2023-02-28T02:55:34;1.8;;;1.7;;
17949;SDS011;9100;48.700;9.316;2023-02-28T02:56:31;2.6;;;2.4;;
17949;SDS011;9100;48.700;9.316;2023-02-28T02:56:33;2.6;;;2.4;;
17949;SDS011;9100;48.700;9.316;2023-02-28T02:57:34;2.6;;;2.4;;
17949;SDS011;9100;48.700;9.316;2023-02-28T02:58:35;2.6;;;2.4;;
17949;SDS011;9100;48.700;9.316;2023-02-28T02:59:33;2.6;;;2.4;;
17949;SDS011;9100;48.700;9.316;2023-02-28T03:00:34;2.6;;;2.4;;
17949;SDS011;9100;48.700;9.316;2023-02-28T03:01:31;2.2;;;2.1;;
17949;SDS011;9100;48.700;9.316;2023-02-28T03:01:33;2.2;;;2.1;;
17949;SDS011;9100;48.700;9.316;2023-02-28T03:02:33;2.2;;;2.1;;
17949;SDS011;9100;48.700;9.316;2023-02-28T03:03:33;2.2;;;2.1;;
17949;SDS011;9100;48.700;9.316;2023-02-28T03:04:34;2.2;;;2.1;;
17949;SDS011;9100;48.700;9.316;2023-02-28T03:05:34;2.2;;;2.1;;
17949;SDS011;9100;48.700;9.316;2023-02-28T03:06:31;2.6;;;2.4;;
17949;SDS011;9100;48.700;9.316;2023-02-28T03:06:33;2.6;;;2.4;;
17949;SDS011;9100;48.700;9.316;2023-02-28T03:07:33;2.6;;;2.4;;
17949;SDS011;9100;48.700;9.316;2023-02-28T03:08:34;2.6;;;2.4;;
17949;SDS011;9100;48.700;9.316;2023-02-28T03:09:34;2.6;;;2.4;;
17949;SDS011;9100;48.700;9.316;2023-02-28T03:10:35;2.6;;;2.4;;
17949;SDS011;9100;48.700;9.316;2023-02-28T03:11:31;2.9;;;2.2;;
17949;SDS011;9100;48.700;9.316;2023-02-28T03:11:34;2.9;;;2.2;;
17949;SDS011;9100;48.700;9.316;2023-02-28T03:12:37;2.9;;;2.2;;
17949;SDS011;9100;48.700;9.316;2023-02-28T03:13:37;2.9;;;2.2;;
17949;SDS011;9100;48.700;9.316;2023-02-28T03:14:37;2.9;;;2.2;;
17949;SDS011;9100;48.700;9.316;2023-02-28T03:15:35;2.9;;;2.2;;
17949;SDS011;9100;48.700;9.316;2023-02-28T03:16:33;2;;;1.9;;
17949;SDS011;9100;48.700;9.316;2023-02-28T03:16:35;2;;;1.9;;
17949;SDS011;9100;48.700;9.316;2023-02-28T03:17:37;2;;;1.9;;
17949;SDS011;9100;48.700;9.316;2023-02-28T03:18:36;2;;;1.9;;
17949;SDS011;9100;48.700;9.316;2023-02-28T03:19:34;2;;;1.9;;
17949;SDS011;9100;48.700;9.316;2023-02-28T03:20:35;2;;;1.9;;
17949;SDS011;9100;48.700;9.316;2023-02-28T03:21:32;2.2;;;2;;
17949;SDS011;9100;48.700;9.316;2023-02-28T03:21:34;2.2;;;2;;
17949;SDS011;9100;48.700;9.316;2023-02-28T03:22:38;2.2;;;2;;
17949;SDS011;9100;48.700;9.316;2023-02-28T03:23:35;2.2;;;2;;
17949;SDS011;9100;48.700;9.316;2023-02-28T03:24:34;2.2;;;2;;
17949;SDS011;9100;48.700;9.316;2023-02-28T03:25:35;2.2;;;2;;
17949;SDS011;9100;48.700;9.316;2023-02-28T03:26:31;2.3;;;2.1;;
17949;SDS011;9100;48.700;9.316;2023-02-28T03:26:34;2.3;;;2.1;;
17949;SDS011;9100;48.700;9.316;2023-02-28T03:27:35;2.3;;;2.1;;
17949;SDS011;9100;48.700;9.316;2023-02-28T03:28:35;2.3;;;2.1;;
17949;SDS011;9100;48.700;9.316;2023-02-28T03:29:34;2.3;;;2.1;;
17949;SDS011;9100;48.700;9.316;2023-02-28T03:30:35;2.3;;;2.1;;
17949;SDS011;9100;48.700;9.316;2023-02-28T03:31:32;2.7;;;2;;
17949;SDS011;9100;48.700;9.316;2023-02-28T03:31:35;2.7;;;2;;
17949;SDS011;9100;48.700;9.316;2023-02-28T03:32:34;2.7;;;2;;
17949;SDS011;9100;48.700;9.316;2023-02-28T03:33:34;2.7;;;2;;
17949;SDS011;9100;48.700;9.316;2023-02-28T03:34:34;2.7;;;2;;
17949;SDS011;9100;48.700;9.316;2023-02-28T03:35:34;2.7;;;2;;
17949;SDS011;9100;48.700;9.316;2023-02-28T03:36:32;3.2;;;2.5;;
17949;SDS011;9100;48.700;9.316;2023-02-28T03:36:35;3.2;;;2.5;;
17949;SDS011;9100;48.700;9.316;2023-02-28T03:37:33;3.2;;;2.5;;
17949;SDS011;9100;48.700;9.316;2023-02-28T03:38:33;3.2;;;2.5;;
17949;SDS011;9100;48.700;9.316;2023-02-28T03:39:34;3.2;;;2.5;;
17949;SDS011;9100;48.700;9.316;2023-02-28T03:40:34;3.2;;;2.5;;
17949;SDS011;9100;48.700;9.316;2023-02-28T03:41:32;2.3;;;2.2;;
17949;SDS011;9100;48.700;9.316;2023-02-28T03:41:35;2.3;;;2.2;;
17949;SDS011;9100;48.700;9.316;2023-02-28T03:42:34;2.3;;;2.2;;
17949;SDS011;9100;48.700;9.316;2023-02-28T03:43:35;2.3;;;2.2;;
17949;SDS011;9100;48.700;9.316;2023-02-28T03:44:34;2.3;;;2.2;;
17949;SDS011;9100;48.700;9.316;2023-02-28T03:45:34;2.3;;;2.2;;
17949;SDS011;9100;48.700;9.316;2023-02-28T03:46:31;2.2;;;2.1;;
17949;SDS011;9100;48.700;9.316;2023-02-28T03:46:34;2.2;;;2.1;;
17949;SDS011;9100;48.700;9.316;2023-02-28T03:47:34;2.2;;;2.1;;
17949;SDS011;9100;48.700;9.316;2023-02-28T03:48:37;2.2;;;2.1;;
17949;SDS011;9100;48.700;9.316;2023-02-28T03:49:34;2.2;;;2.1;;
17949;SDS011;9100;48.700;9.316;2023-02-28T03:50:34;2.2;;;2.1;;
17949;SDS011;9100;48.700;9.316;2023-02-28T03:51:31;1.8;;;1.8;;
17949;SDS011;9100;48.700;9.316;2023-02-28T03:51:33;1.8;;;1.8;;
17949;SDS011;9100;48.700;9.316;2023-02-28T03:52:34;1.8;;;1.8;;
17949;SDS011;9100;48.700;9.316;2023-02-28T03:53:34;1.8;;;1.8;;
17949;SDS011;9100;48.700;9.316;2023-02-28T03:54:34;1.8;;;1.8;;
17949;SDS011;9100;48.700;9.316;2023-02-28T03:55:34;1.8;;;1.8;;
17949;SDS011;9100;48.700;9.316;2023-02-28T03:56:32;2.6;;;2.5;;
17949;SDS011;9100;48.700;9.316;2023-02-28T03:56:34;2.6;;;2.5;;
17949;SDS011;9100;48.700;9.316;2023-02-28T03:57:34;2.6;;;2.5;;
17949;SDS011;9100;48.700;9.316;2023-02-28T03:58:35;2.6;;;2.5;;
17949;SDS011;9100;48.700;9.316;2023-02-28T03:59:34;2.6;;;2.5;;
17949;SDS011;9100;48.700;9.316;2023-02-28T04:00:34;2.6;;;2.5;;
17949;SDS011;9100;48.700;9.316;2023-02-28T04:01:31;4.8;;;2.6;;
17949;SDS011;9100;48.700;9.316;2023-02-28T04:01:34;4.8;;;2.6;;
17949;SDS011;9100;48.700;9.316;2023-02-28T04:02:33;4.8;;;2.6;;
17949;SDS011;9100;48.700;9.316;2023-02-28T04:03:34;4.8;;;2.6;;
17949;SDS011;9100;48.700;9.316;2023-02-28T04:04:33;4.8;;;2.6;;
17949;SDS011;9100;48.700;9.316;2023-02-28T04:05:33;4.8;;;2.6;;
17949;SDS011;9100;48.700;9.316;2023-02-28T04:06:32;2.5;;;2.2;;
17949;SDS011;9100;48.700;9.316;2023-02-28T04:06:34;2.5;;;2.2;;
17949;SDS011;9100;48.700;9.316;2023-02-28T04:07:33;2.5;;;2.2;;
17949;SDS011;9100;48.700;9.316;2023-02-28T04:08:33;2.5;;;2.2;;
17949;SDS011;9100;48.700;9.316;2023-02-28T04:09:33;2.5;;;2.2;;
17949;SDS011;9100;48.700;9.316;2023-02-28T04:10:33;2.5;;;2.2;;
17949;SDS011;9100;48.700;9.316;2023-02-28T04:11:32;2.4;;;2.3;;
17949;SDS011;9100;48.700;9.316;2023-02-28T04:11:34;2.4;;;2.3;;
17949;SDS011;9100;48.700;9.316;2023-02-28T04:12:33;2.4;;;2.3;;
17949;SDS011;9100;48.700;9.316;2023-02-28T04:13:33;2.4;;;2.3;;
17949;SDS011;9100;48.700;9.316;2023-02-28T04:14:33;2.4;;;2.3;;
17949;SDS011;9100;48.700;9.316;2023-02-28T04:15:33;2.4;;;2.3;;
17949;SDS011;9100;48.700;9.316;2023-02-28T04:16:32;2.4;;;2.2;;
17949;SDS011;9100;48.700;9.316;2023-02-28T04:16:34;2.4;;;2.2;;
17949;SDS011;9100;48.700;9.316;2023-02-28T04:17:33;2.4;;;2.2;;
17949;SDS011;9100;48.700;9.316;2023-02-28T04:18:33;2.4;;;2.2;;
17949;SDS011;9100;48.700;9.316;2023-02-28T04:19:33;2.4;;;2.2;;
17949;SDS011;9100;48.700;9.316;2023-02-28T04:20:33;2.4;;;2.2;;
17949;SDS011;9100;48.700;9.316;2023-02-28T04:21:31;2.7;;;2.5;;
17949;SDS011;9100;48.700;9.316;2023-02-28T04:21:34;2.7;;;2.5;;
17949;SDS011;9100;48.700;9.316;2023-02-28T04:22:33;2.7;;;2.5;;
17949;SDS011;9100;48.700;9.316;2023-02-28T04:23:33;2.7;;;2.5;;
17949;SDS011;9100;48.700;9.316;2023-02-28T04:24:33;2.7;;;2.5;;
17949;SDS011;9100;48.700;9.316;2023-02-28T04:25:33;2.7;;;2.5;;
17949;SDS011;9100;48.700;9.316;2023-02-28T04:26:31;3;;;2.9;;
17949;SDS011;9100;48.700;9.316;2023-02-28T04:26:34;3;;;2.9;;
17949;SDS011;9100;48.700;9.316;2023-02-28T04:27:33;3;;;2.9;;
17949;SDS011;9100;48.700;9.316;2023-02-28T04:28:34;3;;;2.9;;
17949;SDS011;9100;48.700;9.316;2023-02-28T04:29:33;3;;;2.9;;
17949;SDS011;9100;48.700;9.316;2023-02-28T04:30:33;3;;;2.9;;
17949;SDS011;9100;48.700;9.316;2023-02-28T04:31:31;2.7;;;2.6;;
17949;SDS011;9100;48.700;9.316;2023-02-28T04:31:33;2.7;;;2.6;;
17949;SDS011;9100;48.700;9.316;2023-02-28T04:32:34;2.7;;;2.6;;
17949;SDS011;9100;48.700;9.316;2023-02-28T04:33:33;2.7;;;2.6;;
17949;SDS011;9100;48.700;9.316;2023-02-28T04:34:33;2.7;;;2.6;;
17949;SDS011;9100;48.700;9.316;2023-02-28T04:35:33;2.7;;;2.6;;
17949;SDS011;9100;48.700;9.316;2023-02-28T04:36:31;2.4;;;2.2;;
17949;SDS011;9100;48.700;9.316;2023-02-28T04:36:34;2.4;;;2.2;;
17949;SDS011;9100;48.700;9.316;2023-02-28T04:37:33;2.4;;;2.2;;
17949;SDS011;9100;48.700;9.316;2023-02-28T04:38:33;2.4;;;2.2;;
17949;SDS011;9100;48.700;9.316;2023-02-28T04:39:34;2.4;;;2.2;;
17949;SDS011;9100;48.700;9.316;2023-02-28T04:40:33;2.4;;;2.2;;
17949;SDS011;9100;48.700;9.316;2023-02-28T04:41:31;3;;;2.8;;
17949;SDS011;9100;48.700;9.316;2023-02-28T04:41:34;3;;;2.8;;
17949;SDS011;9100;48.700;9.316;2023-02-28T04:42:33;3;;;2.8;;
17949;SDS011;9100;48.700;9.316;2023-02-28T04:43:33;3;;;2.8;;
17949;SDS011;9100;48.700;9.316;2023-02-28T04:44:33;3;;;2.8;;
17949;SDS011;9100;48.700;9.316;2023-02-28T04:45:34;3;;;2.8;;
17949;SDS011;9100;48.700;9.316;2023-02-28T04:46:31;3;;;2.8;;
17949;SDS011;9100;48.700;9.316;2023-02-28T04:46:33;3;;;2.8;;
17949;SDS011;9100;48.700;9.316;2023-02-28T04:47:33;3;;;2.8;;
17949;SDS011;9100;48.700;9.316;2023-02-28T04:48:35;3;;;2.8;;
17949;SDS011;9100;48.700;9.316;2023-02-28T04:49:33;3;;;2.8;;
17949;SDS011;9100;48.700;9.316;2023-02-28T04:50:33;3;;;2.8;;
17949;SDS011;9100;48.700;9.316;2023-02-28T04:51:31;2.8;;;2.7;;
17949;SDS011;9100;48.700;9.316;2023-02-28T04:51:33;2.8;;;2.7;;
17949;SDS011;9100;48.700;9.316;2023-02-28T04:52:33;2.8;;;2.7;;
17949;SDS011;9100;48.700;9.316;2023-02-28T04:53:34;2.8;;;2.7;;
17949;SDS011;9100;48.700;9.316;2023-02-28T04:54:33;2.8;;;2.7;;
17949;SDS011;9100;48.700;9.316;2023-02-28T04:55:33;2.8;;;2.7;;
17949;SDS011;9100;48.700;9.316;2023-02-28T04:56:31;3.1;;;2.9;;
17949;SDS011;9100;48.700;9.316;2023-02-28T04:56:33;3.1;;;2.9;;
17949;SDS011;9100;48.700;9.316;2023-02-28T04:57:34;3.1;;;2.9;;
17949;SDS011;9100;48.700;9.316;2023-02-28T04:58:33;3.1;;;2.9;;
17949;SDS011;9100;48.700;9.316;2023-02-28T04:59:33;3.1;;;2.9;;
17949;SDS011;9100;48.700;9.316;2023-02-28T05:00:33;3.1;;;2.9;;
17949;SDS011;9100;48.700;9.316;2023-02-28T05:01:32;2.7;;;2.5;;
17949;SDS011;9100;48.700;9.316;2023-02-28T05:01:34;2.7;;;2.5;;
17949;SDS011;9100;48.700;9.316;2023-02-28T05:02:33;2.7;;;2.5;;
17949;SDS011;9100;48.700;9.316;2023-02-28T05:03:33;2.7;;;2.5;;
17949;SDS011;9100;48.700;9.316;2023-02-28T05:04:33;2.7;;;2.5;;
17949;SDS011;9100;48.700;9.316;2023-02-28T05:05:33;2.7;;;2.5;;
17949;SDS011;9100;48.700;9.316;2023-02-28T05:06:31;2.9;;;2.7;;
17949;SDS011;9100;48.700;9.316;2023-02-28T05:06:33;2.9;;;2.7;;
17949;SDS011;9100;48.700;9.316;2023-02-28T05:07:33;2.9;;;2.7;;
17949;SDS011;9100;48.700;9.316;2023-02-28T05:08:33;2.9;;;2.7;;
17949;SDS011;9100;48.700;9.316;2023-02-28T05:09:33;2.9;;;2.7;;
17949;SDS011;9100;48.700;9.316;2023-02-28T05:10:33;2.9;;;2.7;;
17949;SDS011;9100;48.700;9.316;2023-02-28T05:11:31;2.8;;;2.7;;
17949;SDS011;9100;48.700;9.316;2023-02-28T05:11:34;2.8;;;2.7;;
17949;SDS011;9100;48.700;9.316;2023-02-28T05:12:34;2.8;;;2.7;;
17949;SDS011;9100;48.700;9.316;2023-02-28T05:13:33;2.8;;;2.7;;
17949;SDS011;9100;48.700;9.316;2023-02-28T05:14:33;2.8;;;2.7;;
17949;SDS011;9100;48.700;9.316;2023-02-28T05:15:33;2.8;;;2.7;;
17949;SDS011;9100;48.700;9.316;2023-02-28T05:16:31;2.8;;;2.6;;
17949;SDS011;9100;48.700;9.316;2023-02-28T05:16:34;2.8;;;2.6;;
17949;SDS011;9100;48.700;9.316;2023-02-28T05:17:33;2.8;;;2.6;;
17949;SDS011;9100;48.700;9.316;2023-02-28T05:18:33;2.8;;;2.6;;